Time;durP1;ratioP1;P1;durP2;ratioP2;P2;SDS_P1;SDS_P2;PMS_P1;PMS_P2;Temp;Humidity;BMP_temperature;BMP_pressure;BME280_temperature;BME280_humidity;BME280_pressure;Samples;Min_cycle;Max_cycle;Signal;HPM_P1;HPM_P2
2022/06/28 00:01:59;;;;;;;7.85;1.80;;;11.90;99.90;;;;;;5037677;28;20521;-76
2022/06/28 00:04:27;;;;;;;7.03;1.70;;;12.00;99.90;;;;;;5050954;28;20056;-74
2022/06/28 00:06:54;;;;;;;7.10;1.40;;;12.10;99.90;;;;;;5050018;28;20053;-73
2022/06/28 00:09:22;;;;;;;5.10;1.30;;;12.20;99.90;;;;;;5047436;28;20044;-74
2022/06/28 00:11:51;;;;;;;5.10;1.15;;;12.40;99.90;;;;;;5034409;28;20018;-77
2022/06/28 00:17:07;;;;;;;9.23;1.75;;;12.50;99.90;;;;;;5032930;28;20505;-74
2022/06/28 00:19:35;;;;;;;3.38;0.95;;;12.50;99.90;;;;;;5036471;28;20020;-74
2022/06/28 00:22:02;;;;;;;4.30;1.00;;;12.50;99.90;;;;;;5053270;28;20021;-79
2022/06/28 00:24:30;;;;;;;6.53;1.40;;;12.50;99.90;;;;;;5051612;28;20056;-74
2022/06/28 00:26:57;;;;;;;6.65;2.25;;;12.60;99.90;;;;;;5055081;28;20029;-79
2022/06/28 00:29:24;;;;;;;9.73;1.67;;;12.60;99.90;;;;;;5042620;28;20441;-76
2022/06/28 00:31:52;;;;;;;7.43;1.17;;;12.70;99.90;;;;;;5033736;28;20060;-78
2022/06/28 00:34:19;;;;;;;11.30;2.17;;;12.90;99.90;;;;;;5041700;28;20029;-77
2022/06/28 00:36:46;;;;;;;8.00;1.30;;;13.00;99.90;;;;;;5046826;28;20390;-77
2022/06/28 00:39:14;;;;;;;6.78;2.13;;;13.10;99.90;;;;;;5039172;28;20045;-77
2022/06/28 00:41:43;;;;;;;6.18;2.15;;;13.20;99.90;;;;;;5041540;28;20104;-75
2022/06/28 00:44:14;;;;;;;9.50;1.38;;;13.20;99.90;;;;;;5042382;28;20378;-77
2022/06/28 00:46:42;;;;;;;5.17;1.30;;;13.30;99.90;;;;;;5038589;28;20030;-77
2022/06/28 00:49:13;;;;;;;7.78;1.52;;;13.40;99.90;;;;;;5026465;28;20143;-75
2022/06/28 00:51:42;;;;;;;9.30;2.53;;;13.40;99.90;;;;;;5043122;28;20093;-77
2022/06/28 00:54:10;;;;;;;5.93;1.58;;;13.40;99.90;;;;;;5051675;28;20596;-77
2022/06/28 00:56:37;;;;;;;6.72;1.80;;;13.40;99.90;;;;;;5045049;28;20094;-76
2022/06/28 00:59:04;;;;;;;9.18;2.08;;;13.40;99.90;;;;;;5032219;28;20095;-76
2022/06/28 01:01:32;;;;;;;6.18;1.27;;;13.50;99.90;;;;;;5047649;28;20017;-77
2022/06/28 01:03:59;;;;;;;10.70;2.60;;;13.60;99.90;;;;;;5051389;28;20021;-76
2022/06/28 01:06:27;;;;;;;4.60;1.35;;;13.70;99.90;;;;;;5051923;28;20021;-74
2022/06/28 01:08:54;;;;;;;5.85;1.50;;;13.80;99.90;;;;;;5030645;28;20469;-76
2022/06/28 01:11:21;;;;;;;5.97;1.25;;;13.90;99.90;;;;;;5031521;28;20355;-77
2022/06/28 01:13:50;;;;;;;6.13;0.98;;;13.90;99.90;;;;;;5040043;28;20385;-75
2022/06/28 01:16:18;;;;;;;5.40;1.38;;;14.00;99.90;;;;;;5031199;28;20045;-75
2022/06/28 01:18:46;;;;;;;4.68;1.20;;;14.10;99.90;;;;;;5031268;28;20097;-79
2022/06/28 01:21:17;;;;;;;8.63;1.77;;;14.20;99.90;;;;;;5029797;28;20021;-74
2022/06/28 01:23:47;;;;;;;4.50;1.38;;;14.20;99.90;;;;;;5039148;28;20031;-75
2022/06/28 01:26:16;;;;;;;9.93;1.02;;;14.30;99.90;;;;;;5031735;28;20028;-78
2022/06/28 01:28:44;;;;;;;3.28;1.65;;;14.40;99.90;;;;;;5046613;28;20026;-73
2022/06/28 01:31:12;;;;;;;4.55;1.67;;;14.50;99.90;;;;;;5042881;28;20465;-79
2022/06/28 01:33:40;;;;;;;10.20;2.08;;;14.60;99.90;;;;;;5052074;28;20711;-79
2022/06/28 01:36:08;;;;;;;5.55;1.40;;;14.70;99.90;;;;;;5051501;28;20070;-77
2022/06/28 01:38:38;;;;;;;6.07;0.88;;;14.80;99.90;;;;;;5051199;28;20743;-76
2022/06/28 01:41:06;;;;;;;7.43;1.30;;;14.90;99.90;;;;;;5051659;28;20028;-79
2022/06/28 01:43:35;;;;;;;6.70;1.35;;;15.00;99.90;;;;;;5050036;28;20110;-79
2022/06/28 01:46:08;;;;;;;6.20;1.20;;;15.10;99.90;;;;;;5051291;28;20099;-77
2022/06/28 01:48:35;;;;;;;7.60;1.70;;;15.30;99.90;;;;;;5067294;28;20485;-78
2022/06/28 01:51:03;;;;;;;6.40;1.60;;;15.40;99.90;;;;;;5051615;28;20025;-80
2022/06/28 01:53:30;;;;;;;7.32;1.02;;;15.50;99.90;;;;;;5050930;28;20024;-79
2022/06/28 01:55:57;;;;;;;6.47;1.98;;;15.60;99.90;;;;;;5049577;28;20045;-74
2022/06/28 01:58:24;;;;;;;5.47;1.20;;;15.80;99.90;;;;;;5051067;28;20033;-76
2022/06/28 02:00:52;;;;;;;12.20;2.17;;;16.10;99.90;;;;;;5051123;28;20032;-78
2022/06/28 02:03:19;;;;;;;9.80;2.05;;;16.10;99.50;;;;;;5038810;28;20026;-76
2022/06/28 02:05:47;;;;;;;8.43;1.52;;;16.20;99.50;;;;;;5039927;28;20021;-76
2022/06/28 02:08:14;;;;;;;7.15;1.50;;;16.20;99.40;;;;;;5034476;28;20108;-73
2022/06/28 02:10:41;;;;;;;5.00;1.00;;;16.20;99.20;;;;;;5031415;28;20386;-75
2022/06/28 02:13:09;;;;;;;6.40;1.10;;;16.10;99.00;;;;;;5035279;28;20053;-76
2022/06/28 02:15:36;;;;;;;7.75;2.13;;;16.00;99.30;;;;;;5030643;28;20025;-74
2022/06/28 02:18:03;;;;;;;4.15;1.52;;;15.90;99.40;;;;;;5031444;28;20025;-77
2022/06/28 02:20:31;;;;;;;9.38;2.40;;;15.90;99.30;;;;;;5032188;28;20470;-79
2022/06/28 02:22:58;;;;;;;7.55;1.50;;;15.90;99.10;;;;;;5041036;28;20036;-76
2022/06/28 02:25:26;;;;;;;9.23;1.27;;;15.80;99.00;;;;;;5033469;28;20029;-79
2022/06/28 02:27:53;;;;;;;9.68;1.65;;;15.70;98.70;;;;;;5039876;28;20028;-79
2022/06/28 02:30:21;;;;;;;10.35;2.53;;;15.70;98.80;;;;;;5047901;28;20035;-76
2022/06/28 02:32:48;;;;;;;7.90;2.15;;;15.60;98.90;;;;;;5050395;28;20078;-78
2022/06/28 02:40:46;;;;;;;7.60;1.13;;;15.60;99.30;;;;;;5015492;28;20045;-78
2022/06/28 02:43:13;;;;;;;8.07;1.42;;;15.60;99.20;;;;;;5040806;28;20044;-80
2022/06/28 02:45:42;;;;;;;7.55;2.47;;;15.60;99.10;;;;;;5048153;28;20374;-78
2022/06/28 02:48:25;;;;;;;9.10;2.88;;;15.70;98.90;;;;;;5041182;28;20032;-80
2022/06/28 02:50:53;;;;;;;9.32;2.38;;;15.90;98.80;;;;;;5049635;28;20045;-79
2022/06/28 02:53:20;;;;;;;5.45;1.27;;;16.00;98.50;;;;;;5048446;28;20051;-77
2022/06/28 02:55:47;;;;;;;2.83;0.80;;;16.00;98.50;;;;;;5053367;28;20040;-73
2022/06/28 02:58:15;;;;;;;6.32;1.20;;;15.90;98.20;;;;;;5052109;28;20096;-79
2022/06/28 03:00:42;;;;;;;5.07;1.10;;;15.90;98.40;;;;;;5054077;28;20021;-75
2022/06/28 03:03:09;;;;;;;3.78;1.75;;;15.90;98.50;;;;;;5053977;28;20081;-78
2022/06/28 03:05:37;;;;;;;5.28;1.42;;;16.10;98.50;;;;;;5067495;28;20021;-75
2022/06/28 03:08:04;;;;;;;7.78;1.33;;;16.40;98.30;;;;;;5033744;28;20116;-78
2022/06/28 03:10:31;;;;;;;7.30;1.92;;;16.40;98.20;;;;;;5034428;28;20036;-78
2022/06/28 03:12:59;;;;;;;5.35;1.00;;;16.40;98.10;;;;;;5034544;28;20083;-77
2022/06/28 03:15:26;;;;;;;7.20;1.27;;;16.30;98.40;;;;;;5034973;28;20151;-75
2022/06/28 03:17:53;;;;;;;4.28;0.95;;;16.20;98.40;;;;;;5034213;28;20022;-78
2022/06/28 03:20:21;;;;;;;7.75;2.00;;;16.10;98.90;;;;;;5034248;28;20049;-74
2022/06/28 03:22:48;;;;;;;2.70;1.05;;;16.10;99.10;;;;;;5034306;28;20105;-78
2022/06/28 03:25:16;;;;;;;3.17;1.05;;;16.10;98.80;;;;;;5034062;28;20462;-74
2022/06/28 03:27:43;;;;;;;7.80;2.13;;;16.20;98.90;;;;;;5049279;28;20045;-76
2022/06/28 03:30:10;;;;;;;5.35;1.60;;;16.20;99.00;;;;;;5032379;28;20080;-78
2022/06/28 03:32:38;;;;;;;4.88;1.80;;;16.30;98.70;;;;;;5034101;28;20030;-79
2022/06/28 03:35:06;;;;;;;2.25;0.90;;;16.30;99.00;;;;;;5034854;28;20040;-75
2022/06/28 03:37:34;;;;;;;6.88;1.42;;;16.20;98.80;;;;;;5034673;28;20021;-76
2022/06/28 03:40:04;;;;;;;3.83;0.95;;;16.30;98.80;;;;;;5034655;28;20025;-77
2022/06/28 03:42:31;;;;;;;4.07;1.30;;;16.30;98.70;;;;;;5050354;28;20028;-73
2022/06/28 03:44:59;;;;;;;7.18;1.13;;;16.70;98.50;;;;;;5033411;28;20034;-76
2022/06/28 03:47:26;;;;;;;5.20;0.75;;;17.30;97.50;;;;;;5034332;28;20100;-78
2022/06/28 03:49:53;;;;;;;6.20;1.48;;;17.70;96.30;;;;;;5034338;28;20052;-76
2022/06/28 03:52:28;;;;;;;5.65;1.17;;;17.80;96.00;;;;;;5032665;28;20018;-74
2022/06/28 03:55:01;;;;;;;3.70;1.00;;;17.60;95.90;;;;;;5033638;28;20065;-76
2022/06/28 03:57:29;;;;;;;4.93;1.13;;;17.20;96.10;;;;;;5032245;28;20037;-76
2022/06/28 03:59:56;;;;;;;6.38;1.20;;;16.90;96.40;;;;;;5033969;28;20043;-74
2022/06/28 04:02:24;;;;;;;4.22;1.25;;;16.50;96.90;;;;;;5033843;28;20022;-76
2022/06/28 04:04:51;;;;;;;6.32;1.33;;;16.40;97.20;;;;;;5034325;28;20028;-75
2022/06/28 04:07:18;;;;;;;5.85;1.08;;;16.40;97.20;;;;;;5033782;28;20028;-76
2022/06/28 04:09:46;;;;;;;2.92;1.15;;;16.40;96.90;;;;;;5023540;28;20020;-76
2022/06/28 04:12:13;;;;;;;6.40;1.42;;;16.40;96.90;;;;;;5027774;28;20040;-76
2022/06/28 04:14:40;;;;;;;3.50;1.25;;;16.30;97.00;;;;;;5033575;28;20045;-77
2022/06/28 04:17:08;;;;;;;6.20;1.50;;;16.30;97.10;;;;;;5037462;28;20021;-76
2022/06/28 04:19:38;;;;;;;5.88;1.15;;;16.20;97.40;;;;;;5050580;28;20032;-77
2022/06/28 04:22:05;;;;;;;6.70;1.20;;;16.20;97.70;;;;;;5052607;28;20545;-76
2022/06/28 04:24:33;;;;;;;4.53;0.70;;;16.20;97.70;;;;;;5052574;28;20025;-80
2022/06/28 04:27:01;;;;;;;3.03;0.88;;;16.30;97.70;;;;;;5052691;28;20501;-79
2022/06/28 04:29:29;;;;;;;4.07;1.30;;;16.40;98.00;;;;;;5042127;28;20459;-76
2022/06/28 04:31:56;;;;;;;6.63;1.25;;;16.40;97.50;;;;;;5051987;28;20118;-77
2022/06/28 04:34:23;;;;;;;4.28;1.25;;;16.30;97.50;;;;;;5052912;28;20070;-78
2022/06/28 04:36:50;;;;;;;3.05;1.00;;;16.40;97.60;;;;;;5052263;28;20108;-76
2022/06/28 04:39:18;;;;;;;7.93;2.22;;;16.30;97.60;;;;;;5050634;28;20029;-79
2022/06/28 04:41:46;;;;;;;5.10;1.10;;;16.30;97.60;;;;;;5052718;28;20025;-77
2022/06/28 04:44:13;;;;;;;5.18;1.23;;;16.20;97.70;;;;;;5048183;28;20032;-78
2022/06/28 04:46:40;;;;;;;5.78;1.30;;;16.20;97.90;;;;;;5031885;28;20055;-74
2022/06/28 04:49:08;;;;;;;5.43;1.65;;;16.10;97.80;;;;;;5040768;28;20112;-78
2022/06/28 04:51:36;;;;;;;9.02;1.40;;;16.00;98.40;;;;;;5052082;28;20496;-74
2022/06/28 04:54:03;;;;;;;9.45;1.48;;;15.90;98.50;;;;;;5052339;28;20061;-77
2022/06/28 04:56:31;;;;;;;5.50;1.20;;;15.90;98.80;;;;;;5046600;28;20450;-75
2022/06/28 04:58:58;;;;;;;5.95;1.38;;;15.90;98.50;;;;;;5039001;28;20135;-78
2022/06/28 05:01:25;;;;;;;2.97;1.13;;;16.00;98.60;;;;;;5052320;28;20111;-74
2022/06/28 05:03:53;;;;;;;5.43;0.90;;;16.00;98.50;;;;;;5047395;28;20053;-77
2022/06/28 05:06:21;;;;;;;5.20;1.95;;;15.90;98.60;;;;;;5035348;28;20584;-77
2022/06/28 05:08:48;;;;;;;5.03;1.00;;;16.00;98.90;;;;;;5041703;28;20032;-77
2022/06/28 05:11:15;;;;;;;6.88;1.60;;;16.00;98.70;;;;;;5050747;28;20485;-79
2022/06/28 05:13:43;;;;;;;3.80;1.05;;;16.00;98.70;;;;;;5051242;28;20037;-75
2022/06/28 05:16:10;;;;;;;3.15;1.60;;;16.00;98.60;;;;;;5049735;28;20049;-75
2022/06/28 05:18:38;;;;;;;6.35;1.30;;;15.90;98.00;;;;;;5034036;28;20025;-73
2022/06/28 05:21:05;;;;;;;4.35;1.17;;;15.80;98.30;;;;;;5054429;28;20116;-74
2022/06/28 05:23:33;;;;;;;4.72;1.20;;;15.90;98.50;;;;;;5030369;28;20026;-73
2022/06/28 05:26:00;;;;;;;2.00;0.60;;;15.80;98.40;;;;;;5030336;28;20041;-73
2022/06/28 05:28:28;;;;;;;3.00;1.00;;;15.80;98.30;;;;;;5037757;28;20112;-75
2022/06/28 05:30:55;;;;;;;6.03;0.90;;;15.90;98.30;;;;;;5050840;28;20009;-75
2022/06/28 05:33:23;;;;;;;5.60;1.27;;;15.90;98.30;;;;;;5034352;28;20045;-74
2022/06/28 05:35:51;;;;;;;5.28;1.60;;;15.90;98.10;;;;;;5051279;28;20495;-76
2022/06/28 05:38:18;;;;;;;7.38;2.22;;;16.00;98.00;;;;;;5032632;28;20112;-74
2022/06/28 05:40:47;;;;;;;6.50;1.05;;;16.20;97.90;;;;;;5049987;28;20382;-76
2022/06/28 05:43:14;;;;;;;5.35;1.10;;;16.20;97.70;;;;;;5052500;28;20013;-75
2022/06/28 05:45:41;;;;;;;6.60;2.08;;;16.20;97.50;;;;;;5050522;28;20366;-72
2022/06/28 05:48:09;;;;;;;3.92;1.10;;;16.10;97.70;;;;;;5031934;28;20037;-73
2022/06/28 05:50:36;;;;;;;5.10;1.20;;;15.90;98.10;;;;;;5048895;28;20036;-73
2022/06/28 05:53:03;;;;;;;8.30;2.72;;;15.70;98.50;;;;;;5050878;28;20409;-75
2022/06/28 05:55:31;;;;;;;3.75;1.20;;;15.50;98.70;;;;;;5047865;28;20554;-76
2022/06/28 05:57:58;;;;;;;6.80;2.50;;;15.40;99.10;;;;;;5033968;28;20017;-74
2022/06/28 06:00:26;;;;;;;6.20;1.45;;;15.20;99.60;;;;;;5063718;28;20124;-74
2022/06/28 06:02:53;;;;;;;3.30;1.05;;;15.00;99.90;;;;;;5050147;28;20049;-74
2022/06/28 06:05:20;;;;;;;6.50;1.80;;;15.00;99.90;;;;;;5050208;28;20035;-75
2022/06/28 06:07:48;;;;;;;4.00;1.67;;;14.90;99.90;;;;;;5040240;28;20036;-75
2022/06/28 06:10:15;;;;;;;6.32;1.20;;;14.90;99.90;;;;;;5050383;28;20017;-74
2022/06/28 06:12:43;;;;;;;3.47;0.98;;;14.90;99.90;;;;;;5053501;28;20530;-74
2022/06/28 06:15:10;;;;;;;3.55;1.00;;;14.80;99.90;;;;;;5044789;28;20399;-75
2022/06/28 06:17:38;;;;;;;10.63;1.33;;;14.90;99.90;;;;;;5063074;28;20036;-75
2022/06/28 06:20:06;;;;;;;3.95;0.90;;;14.90;99.90;;;;;;5053761;28;20413;-73
2022/06/28 06:22:34;;;;;;;4.00;1.00;;;14.90;99.90;;;;;;5053894;28;20025;-73
2022/06/28 06:25:01;;;;;;;5.97;1.92;;;14.90;99.90;;;;;;5043002;28;20070;-75
2022/06/28 06:27:32;;;;;;;5.63;0.95;;;14.90;99.90;;;;;;5045779;28;20029;-73
2022/06/28 06:30:06;;;;;;;4.95;1.10;;;14.80;99.90;;;;;;5046259;28;20653;-75
2022/06/28 06:32:34;;;;;;;4.43;2.00;;;14.70;99.90;;;;;;5048534;28;20041;-74
2022/06/28 06:35:02;;;;;;;6.38;2.30;;;14.70;99.90;;;;;;5036071;28;20033;-74
2022/06/28 06:37:30;;;;;;;4.10;1.50;;;14.70;99.90;;;;;;5061879;28;20086;-74
2022/06/28 06:39:57;;;;;;;4.63;1.27;;;14.70;99.90;;;;;;5052817;28;20063;-76
2022/06/28 06:42:27;;;;;;;6.72;1.70;;;14.60;99.90;;;;;;5054186;28;20667;-78
2022/06/28 06:44:56;;;;;;;6.20;1.70;;;14.60;99.90;;;;;;5055095;28;20155;-74
2022/06/28 06:47:24;;;;;;;9.10;1.10;;;14.60;99.90;;;;;;5045071;28;20033;-75
2022/06/28 06:49:51;;;;;;;1.90;1.00;;;14.50;99.90;;;;;;5052973;28;20397;-74
2022/06/28 06:52:18;;;;;;;4.63;0.73;;;14.40;99.90;;;;;;5068711;28;20091;-75
2022/06/28 06:54:46;;;;;;;5.70;1.13;;;14.40;99.90;;;;;;5047971;28;20036;-72
2022/06/28 06:57:15;;;;;;;4.50;1.05;;;14.30;99.90;;;;;;4949030;28;3167991;-74
2022/06/28 06:59:46;;;;;;;3.97;1.45;;;14.20;99.90;;;;;;5054962;28;20453;-74
2022/06/28 07:02:14;;;;;;;7.73;1.50;;;14.10;99.90;;;;;;5052567;28;20055;-73
2022/06/28 07:04:41;;;;;;;5.05;1.15;;;14.10;99.90;;;;;;5050468;28;20100;-75
2022/06/28 07:07:09;;;;;;;4.15;1.30;;;14.00;99.90;;;;;;5042886;28;20024;-75
2022/06/28 07:09:36;;;;;;;4.00;1.05;;;13.90;99.90;;;;;;5054750;28;20102;-73
2022/06/28 07:12:04;;;;;;;3.95;1.20;;;13.90;99.90;;;;;;5040290;28;20060;-73
2022/06/28 07:14:31;;;;;;;5.30;1.33;;;13.80;99.90;;;;;;5034519;28;20069;-74
2022/06/28 07:16:59;;;;;;;4.13;1.58;;;13.70;99.90;;;;;;5042998;28;20017;-74
2022/06/28 07:19:26;;;;;;;5.22;2.10;;;13.70;99.90;;;;;;5054094;28;20029;-75
2022/06/28 07:21:53;;;;;;;7.47;1.55;;;13.60;99.90;;;;;;5054900;28;20021;-72
2022/06/28 07:24:21;;;;;;;7.03;2.13;;;13.50;99.90;;;;;;5053687;28;20067;-74
2022/06/28 07:26:49;;;;;;;4.75;1.70;;;13.50;99.90;;;;;;5042946;28;20017;-74
2022/06/28 07:29:16;;;;;;;8.57;2.67;;;13.30;99.90;;;;;;5039471;28;20025;-74
2022/06/28 07:31:44;;;;;;;7.70;1.80;;;13.30;99.90;;;;;;5048729;28;20025;-76
2022/06/28 07:34:11;;;;;;;5.95;1.85;;;13.30;99.90;;;;;;5052337;28;20120;-74
2022/06/28 07:36:40;;;;;;;10.52;2.45;;;13.20;99.90;;;;;;5041593;28;20035;-76
2022/06/28 07:39:07;;;;;;;6.07;1.67;;;13.20;99.90;;;;;;5046264;28;20414;-74
2022/06/28 07:41:35;;;;;;;6.03;1.77;;;13.20;99.90;;;;;;5043955;28;20022;-72
2022/06/28 07:44:02;;;;;;;4.85;2.38;;;13.20;99.90;;;;;;5031319;28;20045;-74
2022/06/28 07:46:30;;;;;;;3.92;1.98;;;13.20;99.90;;;;;;5033284;28;20029;-73
2022/06/28 07:48:57;;;;;;;6.70;3.20;;;13.10;99.90;;;;;;5047961;28;20047;-74
2022/06/28 07:54:10;;;;;;;6.22;2.72;;;13.10;99.90;;;;;;5054176;28;20112;-73
2022/06/28 07:56:38;;;;;;;7.30;2.53;;;13.20;99.90;;;;;;5034450;28;20052;-74
2022/06/28 07:59:07;;;;;;;7.45;2.10;;;13.10;99.90;;;;;;5040699;28;20119;-73
2022/06/28 08:01:34;;;;;;;6.03;2.20;;;13.10;99.90;;;;;;5053545;28;20450;-73
2022/06/28 08:04:02;;;;;;;2.80;1.05;;;13.10;99.90;;;;;;5053782;28;20033;-73
2022/06/28 08:06:29;;;;;;;6.38;1.83;;;13.00;99.90;;;;;;5055641;28;20022;-74
2022/06/28 08:09:00;;;;;;;6.43;3.20;;;13.00;99.90;;;;;;5046757;28;20055;-72
2022/06/28 08:11:27;;;;;;;13.25;3.15;;;13.00;99.90;;;;;;5069107;28;20311;-72
2022/06/28 08:13:55;;;;;;;7.18;1.63;;;12.90;99.90;;;;;;5053864;28;20098;-72
2022/06/28 08:16:23;;;;;;;6.35;1.83;;;13.00;99.90;;;;;;5036754;28;20017;-75
2022/06/28 08:18:50;;;;;;;6.63;1.50;;;13.00;99.90;;;;;;5046631;28;20487;-74
2022/06/28 08:21:18;;;;;;;7.47;1.58;;;12.90;99.90;;;;;;5054928;28;20021;-72
2022/06/28 08:23:45;;;;;;;6.43;1.88;;;12.90;99.90;;;;;;5069913;28;20134;-72
2022/06/28 08:26:13;;;;;;;6.45;1.92;;;13.00;99.90;;;;;;5053318;28;20036;-74
2022/06/28 08:28:40;;;;;;;6.97;2.10;;;12.90;99.90;;;;;;5053347;28;20481;-76
2022/06/28 08:31:07;;;;;;;7.20;1.80;;;12.90;99.90;;;;;;5054105;28;20086;-74
2022/06/28 08:33:34;;;;;;;5.95;1.92;;;12.90;99.90;;;;;;5053478;28;20031;-75
2022/06/28 08:36:02;;;;;;;9.52;2.00;;;12.90;99.90;;;;;;5050309;28;20018;-80
2022/06/28 08:38:31;;;;;;;5.07;1.90;;;12.90;99.90;;;;;;5035953;28;20056;-81
2022/06/28 08:41:00;;;;;;;6.85;2.40;;;12.90;99.90;;;;;;5055061;28;20059;-81
2022/06/28 08:43:31;;;;;;;4.07;1.70;;;12.90;99.90;;;;;;5054560;28;20439;-75
2022/06/28 08:46:07;;;;;;;11.02;3.00;;;12.90;99.90;;;;;;5053272;28;20025;-73
2022/06/28 08:48:42;;;;;;;6.82;2.17;;;12.90;99.90;;;;;;5052460;28;20025;-80
2022/06/28 08:51:13;;;;;;;4.05;1.50;;;12.90;99.90;;;;;;5053361;28;20033;-73
2022/06/28 08:53:42;;;;;;;8.10;2.50;;;12.90;99.90;;;;;;5050439;28;20059;-73
2022/06/28 08:56:11;;;;;;;5.55;2.80;;;12.90;99.90;;;;;;5069189;28;20135;-72
2022/06/28 08:58:43;;;;;;;8.07;3.13;;;12.90;99.90;;;;;;5052795;28;20029;-74
2022/06/28 09:01:12;;;;;;;6.10;2.30;;;12.80;99.90;;;;;;5069395;28;20029;-76
2022/06/28 09:03:40;;;;;;;4.40;1.85;;;12.80;99.90;;;;;;5051915;28;20131;-78
2022/06/28 09:06:13;;;;;;;4.60;2.20;;;12.80;99.90;;;;;;5036612;28;20037;-72
2022/06/28 09:08:43;;;;;;;6.10;2.50;;;12.70;99.90;;;;;;5030351;28;20822;-76
2022/06/28 09:11:12;;;;;;;5.18;2.63;;;12.60;99.90;;;;;;5031637;28;20049;-77
2022/06/28 09:13:44;;;;;;;6.43;2.60;;;12.50;99.90;;;;;;5032723;28;20112;-75
2022/06/28 09:16:13;;;;;;;7.80;3.30;;;12.50;99.90;;;;;;5051589;28;20025;-78
2022/06/28 09:18:42;;;;;;;5.78;3.50;;;12.50;99.90;;;;;;5053171;28;20154;-77
2022/06/28 09:21:12;;;;;;;8.73;2.80;;;12.50;99.90;;;;;;5051977;28;20056;-77
2022/06/28 09:23:41;;;;;;;6.18;2.35;;;12.40;99.90;;;;;;5052732;28;20576;-76
2022/06/28 09:26:15;;;;;;;8.38;2.85;;;12.40;99.90;;;;;;5051219;28;20112;-78
2022/06/28 09:28:54;;;;;;;9.38;2.65;;;12.30;99.90;;;;;;5046950;28;20459;-74
2022/06/28 09:31:29;;;;;;;3.65;2.20;;;12.30;99.90;;;;;;5032626;28;20394;-78
2022/06/28 09:34:04;;;;;;;10.35;6.38;;;12.20;99.90;;;;;;5033399;28;20022;-78
2022/06/28 09:36:57;;;;;;;13.00;10.68;;;12.10;99.90;;;;;;5041647;28;20033;-72
2022/06/28 09:39:32;;;;;;;16.95;13.48;;;12.20;99.90;;;;;;5048376;28;20033;-78
2022/06/28 09:42:19;;;;;;;23.63;21.20;;;12.10;99.90;;;;;;5035235;28;20026;-74
2022/06/28 09:44:56;;;;;;;37.55;32.58;;;12.10;99.90;;;;;;5053290;28;20048;-77
2022/06/28 09:47:25;;;;;;;18.98;15.30;;;12.00;99.90;;;;;;5052896;28;20033;-75
2022/06/28 09:49:55;;;;;;;33.53;24.95;;;12.00;99.90;;;;;;5040563;28;20025;-73
2022/06/28 09:52:29;;;;;;;20.98;17.02;;;11.90;99.90;;;;;;5037830;28;20040;-76
2022/06/28 09:54:59;;;;;;;13.30;9.50;;;11.90;99.90;;;;;;5044771;28;20482;-74
2022/06/28 09:57:32;;;;;;;14.35;8.18;;;11.90;99.90;;;;;;5048496;28;20781;-74
2022/06/28 10:00:00;;;;;;;10.07;7.15;;;11.90;99.90;;;;;;5044002;28;20052;-71
2022/06/28 10:02:29;;;;;;;9.68;5.45;;;11.80;99.90;;;;;;5031473;28;20025;-72
2022/06/28 10:05:01;;;;;;;10.98;6.38;;;11.80;99.90;;;;;;5032335;28;20025;-74
2022/06/28 10:07:32;;;;;;;8.95;5.90;;;11.80;99.90;;;;;;5046797;28;20039;-76
2022/06/28 10:10:01;;;;;;;9.70;5.18;;;11.80;99.90;;;;;;5050475;28;20021;-78
2022/06/28 10:15:21;;;;;;;10.23;5.22;;;11.80;99.90;;;;;;5031655;28;20048;-74
2022/06/28 10:18:09;;;;;;;8.75;4.40;;;11.80;99.90;;;;;;5050418;28;20025;-74
2022/06/28 10:20:40;;;;;;;6.18;4.05;;;11.80;99.90;;;;;;5011184;28;20394;-74
2022/06/28 10:23:36;;;;;;;5.65;3.60;;;11.90;99.90;;;;;;5026775;28;20083;-73
2022/06/28 10:26:26;;;;;;;8.43;3.47;;;11.90;99.90;;;;;;5038805;28;20095;-73
2022/06/28 10:29:12;;;;;;;8.77;3.50;;;11.90;99.90;;;;;;5051503;28;20057;-73
2022/06/28 10:31:44;;;;;;;11.40;5.28;;;11.90;99.90;;;;;;5050793;28;20021;-74
2022/06/28 10:34:44;;;;;;;8.43;5.20;;;11.90;99.90;;;;;;5051879;28;20079;-76
2022/06/28 10:37:12;;;;;;;9.30;5.05;;;11.90;99.90;;;;;;5039854;28;20032;-72
2022/06/28 10:39:42;;;;;;;8.60;4.70;;;12.00;99.90;;;;;;5052025;28;20050;-73
2022/06/28 10:42:14;;;;;;;9.40;4.07;;;11.90;99.90;;;;;;5041341;28;20466;-75
2022/06/28 10:44:47;;;;;;;6.90;4.90;;;12.00;99.90;;;;;;5039897;28;20028;-71
2022/06/28 10:47:21;;;;;;;14.10;4.85;;;12.00;99.90;;;;;;5051305;28;20113;-75
2022/06/28 10:49:58;;;;;;;9.05;3.83;;;12.00;99.90;;;;;;5051138;28;20092;-76
2022/06/28 10:52:34;;;;;;;8.65;3.90;;;12.00;99.90;;;;;;5041920;28;20028;-72
2022/06/28 10:55:04;;;;;;;6.78;2.80;;;12.00;99.90;;;;;;5048974;28;20108;-71
2022/06/28 10:57:32;;;;;;;8.77;3.92;;;12.10;99.90;;;;;;5050972;28;20060;-74
2022/06/28 11:00:13;;;;;;;12.10;4.72;;;12.10;99.90;;;;;;5041088;28;20486;-75
2022/06/28 11:02:56;;;;;;;9.57;4.93;;;12.20;99.90;;;;;;5033814;28;20037;-70
2022/06/28 11:05:43;;;;;;;11.45;5.43;;;12.20;99.90;;;;;;5043568;28;20393;-74
2022/06/28 11:08:17;;;;;;;9.65;5.35;;;12.20;99.90;;;;;;5054635;28;20445;-72
2022/06/28 11:11:05;;;;;;;13.75;8.57;;;12.20;99.90;;;;;;5037288;28;20078;-74
2022/06/28 11:13:32;;;;;;;10.20;7.10;;;12.20;99.90;;;;;;5053173;28;20482;-76
2022/06/28 11:16:00;;;;;;;6.85;5.00;;;12.20;99.90;;;;;;5054408;28;20055;-75
2022/06/28 11:18:28;;;;;;;9.57;4.60;;;12.20;99.90;;;;;;5054227;28;20048;-75
2022/06/28 11:20:56;;;;;;;11.18;4.55;;;12.30;99.90;;;;;;5053734;28;20095;-83
2022/06/28 11:23:24;;;;;;;7.03;4.57;;;12.20;99.90;;;;;;5054494;28;20374;-73
2022/06/28 11:29:13;;;;;;;7.13;3.72;;;12.30;99.90;;;;;;5054508;28;20071;-80
2022/06/28 11:31:42;;;;;;;8.73;5.32;;;12.20;99.90;;;;;;4993007;28;20076;-83
2022/06/28 11:34:10;;;;;;;6.28;3.35;;;12.20;99.90;;;;;;5027906;28;20065;-83
2022/06/28 11:36:37;;;;;;;7.97;3.85;;;12.10;99.90;;;;;;5044974;28;20028;-83
2022/06/28 11:39:23;;;;;;;9.07;3.50;;;12.20;99.90;;;;;;5054566;28;20020;-73
2022/06/28 11:41:55;;;;;;;4.10;2.72;;;12.10;99.90;;;;;;5054365;28;20025;-82
2022/06/28 11:44:23;;;;;;;4.93;2.65;;;12.20;99.90;;;;;;5054376;28;20150;-71
2022/06/28 11:46:52;;;;;;;5.78;2.05;;;12.10;99.90;;;;;;5053531;28;20566;-74
2022/06/28 11:49:31;;;;;;;5.85;3.10;;;12.10;99.90;;;;;;5053472;28;20032;-82
2022/06/28 11:51:58;;;;;;;6.13;2.80;;;12.10;99.90;;;;;;5053630;28;20025;-84
2022/06/28 11:54:26;;;;;;;5.70;2.90;;;12.10;99.90;;;;;;5053868;28;20072;-72
2022/06/28 11:56:53;;;;;;;6.07;2.50;;;12.20;99.90;;;;;;5053898;28;20123;-71
2022/06/28 11:59:41;;;;;;;5.90;2.05;;;12.20;99.90;;;;;;5053478;28;20393;-77
2022/06/28 12:02:31;;;;;;;5.03;2.25;;;12.20;99.90;;;;;;5053166;28;20028;-74
2022/06/28 12:05:17;;;;;;;4.85;2.50;;;12.10;99.90;;;;;;5053196;28;20080;-84
2022/06/28 12:07:50;;;;;;;4.85;2.58;;;12.10;99.90;;;;;;5052537;28;20108;-76
2022/06/28 12:10:45;;;;;;;;;;;12.10;99.90;;;;;;5052616;28;20056;-76
2022/06/28 12:13:33;;;;;;;9.63;3.38;;;12.10;99.90;;;;;;5055289;28;20357;-74
2022/06/28 12:16:03;;;;;;;5.43;2.58;;;12.10;99.90;;;;;;5051582;28;20179;-79
2022/06/28 12:18:32;;;;;;;6.25;2.83;;;12.00;99.90;;;;;;5052838;28;20025;-74
2022/06/28 12:21:00;;;;;;;6.15;2.58;;;11.90;99.90;;;;;;5053199;28;20020;-73
2022/06/28 12:23:47;;;;;;;6.47;3.42;;;11.90;99.90;;;;;;5052844;28;20033;-74
2022/06/28 12:26:16;;;;;;;6.72;4.30;;;11.80;99.90;;;;;;5053887;28;20104;-83
2022/06/28 12:28:48;;;;;;;4.13;2.28;;;11.80;99.90;;;;;;5054845;28;20104;-77
2022/06/28 12:31:16;;;;;;;7.88;2.78;;;11.70;99.90;;;;;;5047777;28;20037;-79
2022/06/28 12:34:06;;;;;;;7.55;2.78;;;11.70;99.90;;;;;;5050835;28;20040;-79
2022/06/28 12:36:55;;;;;;;4.88;2.92;;;11.60;99.90;;;;;;5052942;28;20033;-74
2022/06/28 12:39:23;;;;;;;4.13;2.90;;;11.60;99.90;;;;;;5055189;28;20044;-75
2022/06/28 12:41:51;;;;;;;6.57;4.00;;;11.60;99.90;;;;;;5052909;28;20056;-73
2022/06/28 12:44:19;;;;;;;6.22;3.95;;;11.50;99.90;;;;;;5052286;28;20033;-72
2022/06/28 12:46:51;;;;;;;6.88;3.00;;;11.50;99.90;;;;;;5052502;28;20051;-79
2022/06/28 12:49:20;;;;;;;8.77;3.58;;;11.60;99.90;;;;;;5051067;28;20466;-76
2022/06/28 12:51:49;;;;;;;5.68;3.70;;;11.60;99.90;;;;;;5052587;28;20032;-81
2022/06/28 12:54:19;;;;;;;5.60;3.28;;;11.60;99.90;;;;;;5052168;28;20112;-76
2022/06/28 12:56:52;;;;;;;6.47;2.80;;;11.60;99.90;;;;;;5052144;28;20045;-74
2022/06/28 12:59:19;;;;;;;6.05;3.22;;;11.60;99.90;;;;;;5052331;28;20033;-75
2022/06/28 13:01:55;;;;;;;8.07;3.15;;;11.70;99.90;;;;;;5051929;28;20063;-72
2022/06/28 13:04:25;;;;;;;7.47;3.03;;;11.70;99.90;;;;;;5051525;28;20074;-71
2022/06/28 13:06:54;;;;;;;6.88;3.75;;;11.70;99.90;;;;;;5067513;28;20116;-83
2022/06/28 13:09:25;;;;;;;8.50;4.03;;;11.80;99.90;;;;;;5050712;28;20033;-74
2022/06/28 13:11:57;;;;;;;6.03;3.13;;;11.70;99.90;;;;;;5052430;28;20032;-82
2022/06/28 13:14:24;;;;;;;7.55;3.45;;;11.80;99.90;;;;;;5051399;28;20045;-76
2022/06/28 13:16:54;;;;;;;4.93;2.47;;;11.70;99.90;;;;;;5052249;28;20055;-71